Time;durP1;ratioP1;P1;durP2;ratioP2;P2;SDS_P1;SDS_P2;PMS_P1;PMS_P2;Temp;Humidity;BMP_temperature;BMP_pressure;BME280_temperature;BME280_humidity;BME280_pressure;Samples;Min_cycle;Max_cycle;Signal;HPM_P1;HPM_P2
2023/01/13 00:00:55;;;;;;;1999.90;999.90;;;;;;;1.74;100.00;98250.63;4953179;29;20079;-73
2023/01/13 00:03:21;;;;;;;1999.90;999.90;;;;;;;1.79;100.00;98248.03;4953111;29;20031;-73
2023/01/13 00:05:46;;;;;;;1999.90;999.90;;;;;;;1.69;100.00;98242.41;4953006;29;20400;-73
2023/01/13 00:08:11;;;;;;;1999.90;999.90;;;;;;;1.69;100.00;98234.34;4952914;29;20061;-73
2023/01/13 00:10:36;;;;;;;1999.90;999.90;;;;;;;1.77;100.00;98243.94;4952875;29;20019;-72
2023/01/13 00:13:03;;;;;;;1999.90;999.90;;;;;;;1.81;100.00;98237.88;4953127;29;20035;-72
2023/01/13 00:15:29;;;;;;;1999.90;999.90;;;;;;;1.75;100.00;98232.56;4952940;29;20035;-72
2023/01/13 00:17:54;;;;;;;1999.90;999.90;;;;;;;1.87;100.00;98236.09;4952850;29;20036;-72
2023/01/13 00:20:19;;;;;;;1999.90;999.90;;;;;;;1.95;100.00;98246.53;4936031;29;20061;-73
2023/01/13 00:22:45;;;;;;;1999.90;999.90;;;;;;;1.92;100.00;98238.91;4952855;29;20465;-72
2023/01/13 00:25:11;;;;;;;1999.90;999.90;;;;;;;1.92;100.00;98233.53;4952690;29;20065;-72
2023/01/13 00:27:36;;;;;;;1999.90;999.90;;;;;;;1.94;100.00;98244.91;4952581;29;20045;-72
2023/01/13 00:30:02;;;;;;;1999.90;999.90;;;;;;;1.79;100.00;98237.25;4952711;29;20039;-73
2023/01/13 00:32:28;;;;;;;1999.90;999.90;;;;;;;1.73;100.00;98238.19;4952618;29;20031;-72
2023/01/13 00:34:53;;;;;;;1999.90;999.90;;;;;;;1.60;100.00;98235.69;4952625;29;20042;-72
2023/01/13 00:37:19;;;;;;;1999.90;999.90;;;;;;;1.43;100.00;98242.81;4952706;29;20031;-72
2023/01/13 00:39:44;;;;;;;1999.90;999.90;;;;;;;1.33;100.00;98239.84;4952568;29;20031;-72
2023/01/13 00:44:54;;;;;;;1999.90;999.90;;;;;;;1.37;100.00;98230.25;4952420;29;20456;-72
2023/01/13 00:47:19;;;;;;;1999.90;999.90;;;;;;;1.33;100.00;98229.91;4953114;29;20024;-72
2023/01/13 00:49:44;;;;;;;1999.90;999.90;;;;;;;1.48;100.00;98232.16;4936692;29;20034;-72
2023/01/13 00:52:11;;;;;;;1999.90;999.90;;;;;;;1.49;100.00;98231.94;4932868;29;20075;-72
2023/01/13 00:54:36;;;;;;;1999.90;999.90;;;;;;;1.58;100.00;98237.81;4933459;29;20043;-72
2023/01/13 00:57:03;;;;;;;1999.90;999.90;;;;;;;1.67;100.00;98233.72;4934320;29;20036;-73
2023/01/13 00:59:28;;;;;;;1999.90;999.90;;;;;;;1.54;100.00;98233.94;4938962;29;20470;-75
2023/01/13 01:01:54;;;;;;;1999.90;999.90;;;;;;;1.63;100.00;98237.94;4937343;29;20047;-73
2023/01/13 01:04:19;;;;;;;1999.90;999.90;;;;;;;1.68;100.00;98227.28;4937298;29;20102;-73
2023/01/13 01:06:44;;;;;;;1999.90;999.90;;;;;;;1.79;100.00;98226.47;4937188;29;20059;-73
2023/01/13 01:09:13;;;;;;;1999.90;999.90;;;;;;;1.74;100.00;98229.06;4937269;29;20035;-73
2023/01/13 01:11:39;;;;;;;1999.90;999.90;;;;;;;1.72;100.00;98225.78;4937172;29;20031;-73
2023/01/13 01:14:05;;;;;;;1999.90;999.90;;;;;;;1.74;100.00;98229.06;4937241;29;20046;-73
2023/01/13 01:16:32;;;;;;;1999.90;999.90;;;;;;;1.65;100.00;98233.16;4936931;29;20035;-73
2023/01/13 01:18:58;;;;;;;1999.90;999.90;;;;;;;1.67;100.00;98228.34;4936922;29;20024;-73
2023/01/13 01:21:25;;;;;;;1999.90;999.90;;;;;;;1.75;100.00;98225.31;4936795;29;20039;-72
2023/01/13 01:23:51;;;;;;;1999.90;999.90;;;;;;;1.77;100.00;98228.59;4936660;29;20028;-73
2023/01/13 01:26:20;;;;;;;1999.90;999.90;;;;;;;1.73;100.00;98219.31;4939218;29;20035;-73
2023/01/13 01:28:46;;;;;;;1999.90;999.90;;;;;;;1.79;100.00;98221.09;4955866;28;20032;-73
2023/01/13 01:31:17;;;;;;;1999.90;999.90;;;;;;;1.80;100.00;98225.44;4955840;28;20114;-73
2023/01/13 01:33:43;;;;;;;1999.90;999.90;;;;;;;1.72;100.00;98227.66;4955908;28;20035;-73
2023/01/13 01:36:10;;;;;;;1999.90;999.90;;;;;;;1.66;100.00;98215.91;4955798;28;20027;-73
2023/01/13 01:38:36;;;;;;;1999.90;999.90;;;;;;;1.74;100.00;98226.38;4955638;28;20031;-72
2023/01/13 01:41:02;;;;;;;1999.90;999.90;;;;;;;1.75;100.00;98225.31;4955610;28;20028;-75
2023/01/13 01:44:18;;;;;;;1999.90;999.90;;;;;;;1.71;100.00;98216.03;4956016;28;20035;-74
2023/01/13 01:46:43;;;;;;;1999.90;999.90;;;;;;;1.74;100.00;98206.66;4922845;28;20481;-75
2023/01/13 01:49:20;;;;;;;1999.90;999.90;;;;;;;1.64;100.00;98207.22;4955471;28;20063;-72
2023/01/13 01:51:50;;;;;;;1999.90;999.90;;;;;;;1.81;100.00;98202.81;4955282;28;20044;-72
2023/01/13 01:54:23;;;;;;;1999.90;999.90;;;;;;;1.60;100.00;98200.66;4955463;28;20476;-73
2023/01/13 01:56:49;;;;;;;1999.90;999.90;;;;;;;1.80;100.00;98193.06;4955567;28;20035;-73
2023/01/13 01:59:15;;;;;;;1999.90;999.90;;;;;;;1.86;100.00;98183.22;4955585;28;20054;-73
2023/01/13 02:01:42;;;;;;;1999.90;999.90;;;;;;;1.97;100.00;98182.41;4957097;28;20097;-73
2023/01/13 02:04:14;;;;;;;1999.90;999.90;;;;;;;1.96;100.00;98173.50;4955219;28;20907;-73
2023/01/13 02:06:41;;;;;;;1999.90;999.90;;;;;;;1.92;100.00;98174.19;4955099;28;20027;-73
2023/01/13 02:09:07;;;;;;;1999.90;999.90;;;;;;;1.93;100.00;98176.66;4957200;28;20433;-73
2023/01/13 02:14:21;;;;;;;1999.90;999.90;;;;;;;1.84;100.00;98164.59;4954668;29;20077;-72
2023/01/13 02:16:57;;;;;;;1999.90;999.90;;;;;;;1.96;100.00;98169.97;4954604;29;20164;-72
2023/01/13 02:19:41;;;;;;;1999.90;999.90;;;;;;;1.99;100.00;98164.94;4955308;29;20039;-72
2023/01/13 02:22:49;;;;;;;1999.90;999.90;;;;;;;1.80;100.00;98158.03;4954893;29;20511;-73
2023/01/13 02:25:42;;;;;;;1999.90;999.90;;;;;;;1.82;100.00;98161.28;4928996;29;20110;-75
2023/01/13 02:28:36;;;;;;;1999.90;999.90;;;;;;;1.92;100.00;98160.72;4935413;29;20062;-74
2023/01/13 02:34:01;;;;;;;;;;;;;;;1.91;100.00;98161.78;4956625;29;20046;-74
2023/01/13 02:36:37;;;;;;;1999.90;999.90;;;;;;;1.82;100.00;98150.50;4955999;29;19961;-73
2023/01/13 02:39:16;;;;;;;1999.90;999.90;;;;;;;1.86;100.00;98145.47;4955396;29;20090;-73
2023/01/13 02:44:42;;;;;;;1999.90;999.90;;;;;;;1.80;100.00;98149.09;4935227;29;20054;-73
2023/01/13 02:47:15;;;;;;;1999.90;999.90;;;;;;;1.70;100.00;98132.69;4934927;29;20043;-72
2023/01/13 02:49:46;;;;;;;1999.90;999.90;;;;;;;1.74;100.00;98137.41;4934600;29;20524;-73
2023/01/13 02:52:43;;;;;;;1999.90;999.90;;;;;;;1.78;100.00;98143.97;4917207;29;20416;-73
2023/01/13 02:55:16;;;;;;;1999.90;999.90;;;;;;;1.78;100.00;98146.66;4919835;29;20039;-73
2023/01/13 02:57:43;;;;;;;1999.90;999.90;;;;;;;1.82;100.00;98134.34;4934742;29;20032;-74
2023/01/13 03:00:11;;;;;;;1999.90;999.90;;;;;;;1.93;100.00;98130.00;4934882;29;20048;-73
2023/01/13 03:02:37;;;;;;;1999.90;999.90;;;;;;;1.89;100.00;98140.44;4919288;29;20393;-73
2023/01/13 03:05:04;;;;;;;1999.90;999.90;;;;;;;1.87;100.00;98134.47;4952444;28;20042;-74
2023/01/13 03:08:07;;;;;;;1999.90;999.90;;;;;;;1.90;100.00;98131.28;4954897;28;20051;-75
2023/01/13 03:10:39;;;;;;;1999.90;999.90;;;;;;;1.95;100.00;98128.69;4956210;28;20031;-73
2023/01/13 03:13:31;;;;;;;1999.90;999.90;;;;;;;1.94;100.00;98128.94;4953796;28;20114;-79
2023/01/13 03:16:33;;;;;;;1999.90;999.90;;;;;;;2.00;100.00;98120.75;4944201;28;20053;-73
2023/01/13 03:19:20;;;;;;;1999.90;999.90;;;;;;;1.97;100.00;98126.56;4953504;28;20493;-73
2023/01/13 03:22:03;;;;;;;1999.90;999.90;;;;;;;2.08;100.00;98125.75;4952675;28;20035;-73
2023/01/13 03:24:37;;;;;;;1999.90;999.90;;;;;;;2.03;100.00;98122.97;4953621;29;20027;-73
2023/01/13 03:27:32;;;;;;;1999.90;999.90;;;;;;;2.08;100.00;98116.84;4953326;28;20031;-73
2023/01/13 03:30:06;;;;;;;1999.90;999.90;;;;;;;2.07;100.00;98115.19;4953457;29;20033;-73
2023/01/13 03:32:41;;;;;;;1999.90;999.90;;;;;;;2.04;100.00;98126.47;4935986;29;20031;-73
2023/01/13 03:35:17;;;;;;;1999.90;999.90;;;;;;;2.12;100.00;98116.16;4953671;29;20039;-73
2023/01/13 03:37:50;;;;;;;1999.90;999.90;;;;;;;2.02;100.00;98117.78;4953529;28;20062;-73
2023/01/13 03:40:20;;;;;;;1999.90;999.90;;;;;;;2.02;100.00;98113.22;4953405;28;20043;-73
2023/01/13 03:45:39;;;;;;;1999.90;999.90;;;;;;;2.09;100.00;98103.13;4953483;29;20050;-73
2023/01/13 03:48:14;;;;;;;1999.90;999.90;;;;;;;2.09;100.00;98108.53;4953389;28;20420;-73
2023/01/13 03:50:53;;;;;;;1999.90;999.90;;;;;;;2.03;100.00;98104.09;4953342;28;20043;-73
2023/01/13 03:53:29;;;;;;;1999.90;999.90;;;;;;;1.92;100.00;98096.00;4953175;28;20051;-73
2023/01/13 03:56:00;;;;;;;1999.90;999.90;;;;;;;1.94;100.00;98100.09;4953829;28;20035;-73
2023/01/13 03:58:33;;;;;;;1999.90;999.90;;;;;;;1.88;100.00;98095.63;4938388;29;20079;-73
2023/01/13 04:01:06;;;;;;;1999.90;999.90;;;;;;;1.80;100.00;98090.63;4953307;28;20078;-73
2023/01/13 04:03:53;;;;;;;1999.90;999.90;;;;;;;1.70;100.00;98081.47;4953094;28;20122;-74
2023/01/13 04:06:36;;;;;;;1999.90;999.90;;;;;;;1.55;100.00;98092.75;4952911;28;20429;-73
2023/01/13 04:09:11;;;;;;;1999.90;999.90;;;;;;;1.52;100.00;98082.44;4953027;29;20493;-73
2023/01/13 04:11:43;;;;;;;1999.90;999.90;;;;;;;1.42;100.00;98090.25;4953003;29;20023;-74
2023/01/13 04:14:11;;;;;;;1999.90;999.90;;;;;;;1.30;100.00;98081.34;4953414;29;20035;-73
2023/01/13 04:16:37;;;;;;;1999.90;999.90;;;;;;;1.28;100.00;98081.59;4952817;28;20019;-73
2023/01/13 04:19:03;;;;;;;1999.90;999.90;;;;;;;1.26;100.00;98082.88;4952777;28;20038;-76
2023/01/13 04:21:29;;;;;;;1999.90;999.90;;;;;;;1.20;100.00;98078.41;4952900;28;20031;-73
2023/01/13 04:23:55;;;;;;;1999.90;999.90;;;;;;;1.28;100.00;98091.56;4952869;28;20113;-73
2023/01/13 04:26:22;;;;;;;1999.90;999.90;;;;;;;1.21;100.00;98075.50;4953626;28;20055;-73
2023/01/13 04:28:47;;;;;;;1999.90;999.90;;;;;;;1.38;100.00;98089.91;4955088;29;20447;-74
2023/01/13 04:31:13;;;;;;;1999.90;999.90;;;;;;;1.47;100.00;98088.50;4953636;28;20031;-73
2023/01/13 04:33:38;;;;;;;1999.90;999.90;;;;;;;1.56;100.00;98084.44;4952514;28;20475;-73
2023/01/13 04:36:04;;;;;;;1999.90;999.90;;;;;;;1.60;100.00;98093.66;4952596;29;20118;-73
2023/01/13 04:38:30;;;;;;;1999.90;999.90;;;;;;;1.61;100.00;98094.50;4952664;28;20034;-73
2023/01/13 04:40:55;;;;;;;1999.90;999.90;;;;;;;1.58;100.00;98090.41;4935217;29;20035;-74
2023/01/13 04:43:20;;;;;;;1999.90;999.90;;;;;;;1.67;100.00;98082.78;4952521;28;20114;-73
2023/01/13 04:45:46;;;;;;;1999.90;999.90;;;;;;;1.71;100.00;98088.50;4952843;28;20031;-73
2023/01/13 04:48:11;;;;;;;1999.90;999.90;;;;;;;1.70;100.00;98082.28;4952196;28;20476;-74
2023/01/13 04:50:37;;;;;;;1999.90;999.90;;;;;;;1.71;100.00;98094.72;4935226;28;20110;-73
2023/01/13 04:53:02;;;;;;;1999.90;999.90;;;;;;;1.67;100.00;98079.25;4952355;28;20062;-73
2023/01/13 04:55:28;;;;;;;1999.90;999.90;;;;;;;1.65;100.00;98089.47;4952463;28;20369;-73
2023/01/13 04:57:53;;;;;;;1999.90;999.90;;;;;;;1.74;100.00;98077.25;4952401;28;20468;-73
2023/01/13 05:00:21;;;;;;;1999.90;999.90;;;;;;;1.78;100.00;98073.03;4952282;28;20039;-73
2023/01/13 05:02:49;;;;;;;1999.90;999.90;;;;;;;1.83;100.00;98075.84;4952095;28;20086;-73
2023/01/13 05:05:15;;;;;;;1999.90;999.90;;;;;;;1.84;100.00;98067.53;4952316;28;20063;-73
2023/01/13 05:07:40;;;;;;;1999.90;999.90;;;;;;;1.86;100.00;98073.50;4952334;29;20062;-73
2023/01/13 05:10:06;;;;;;;1999.90;999.90;;;;;;;1.75;100.00;98068.94;4952237;28;20114;-73
2023/01/13 05:18:00;;;;;;;1999.90;999.90;;;;;;;1.86;100.00;98065.41;4956643;28;20086;-74
2023/01/13 05:20:26;;;;;;;1999.90;999.90;;;;;;;1.98;100.00;98063.50;4954152;28;20039;-73
2023/01/13 05:25:39;;;;;;;1999.90;999.90;;;;;;;2.07;100.00;98058.56;4952282;28;20034;-73
2023/01/13 05:28:05;;;;;;;1999.90;999.90;;;;;;;2.06;100.00;98054.22;4949423;28;20501;-73
2023/01/13 05:30:36;;;;;;;1999.90;999.90;;;;;;;1.99;100.00;98062.44;4951928;29;20031;-74
2023/01/13 05:33:01;;;;;;;1999.90;999.90;;;;;;;1.96;100.00;98065.63;4952045;29;20396;-73
2023/01/13 05:35:27;;;;;;;1999.90;999.90;;;;;;;1.92;100.00;98069.03;4952152;29;20036;-73
2023/01/13 05:37:53;;;;;;;1999.90;999.90;;;;;;;1.96;100.00;98067.50;4952274;29;20031;-73
2023/01/13 05:43:19;;;;;;;1999.90;999.90;;;;;;;2.08;100.00;98069.13;4973674;28;20034;-73
2023/01/13 05:46:08;;;;;;;1999.90;999.90;;;;;;;2.07;100.00;98064.75;4976512;28;20031;-75
2023/01/13 05:48:37;;;;;;;1999.90;999.90;;;;;;;2.05;100.00;98068.75;4975943;28;20038;-73
2023/01/13 05:51:04;;;;;;;1999.90;999.90;;;;;;;2.06;100.00;98079.34;4966566;28;20499;-73
2023/01/13 05:53:29;;;;;;;1999.90;999.90;;;;;;;2.15;100.00;98077.91;4955445;29;20024;-73
2023/01/13 05:55:55;;;;;;;1999.90;999.90;;;;;;;1.93;100.00;98052.63;4955587;29;20118;-73
2023/01/13 05:58:23;;;;;;;1999.90;999.90;;;;;;;2.09;100.00;98065.38;4955562;29;20126;-73
2023/01/13 06:00:49;;;;;;;1999.90;999.90;;;;;;;1.94;100.00;98067.72;4937280;29;20027;-73
2023/01/13 06:03:15;;;;;;;1999.90;999.90;;;;;;;2.00;100.00;98071.38;4955132;29;20057;-73
2023/01/13 06:05:41;;;;;;;1999.90;999.90;;;;;;;1.91;100.00;98067.41;4955627;29;20086;-73
2023/01/13 06:08:08;;;;;;;1999.90;999.90;;;;;;;1.88;100.00;98084.84;4954101;29;20034;-73
2023/01/13 06:10:35;;;;;;;1999.90;999.90;;;;;;;1.72;100.00;98076.69;4946677;29;20028;-74
2023/01/13 06:13:00;;;;;;;1999.90;999.90;;;;;;;1.72;100.00;98085.59;4945689;29;20102;-73
2023/01/13 06:15:26;;;;;;;1999.90;999.90;;;;;;;1.76;100.00;98085.91;4953817;28;20085;-74
2023/01/13 06:17:51;;;;;;;1999.90;999.90;;;;;;;1.76;100.00;98086.75;4952074;28;20718;-74
2023/01/13 06:20:17;;;;;;;1999.90;999.90;;;;;;;1.70;100.00;98092.25;4959762;28;20035;-74
2023/01/13 06:22:47;;;;;;;1999.90;999.90;;;;;;;1.60;100.00;98092.84;4974565;28;20034;-74
2023/01/13 06:25:25;;;;;;;1999.90;999.90;;;;;;;1.56;100.00;98091.69;4959170;28;20087;-74
2023/01/13 06:27:52;;;;;;;1999.90;999.90;;;;;;;1.43;100.00;98083.84;4939541;29;20049;-75
2023/01/13 06:30:18;;;;;;;1999.90;999.90;;;;;;;1.47;100.00;98085.81;4957350;29;20032;-73
2023/01/13 06:32:46;;;;;;;1999.90;999.90;;;;;;;1.50;100.00;98089.94;4959571;28;20038;-74
2023/01/13 06:35:18;;;;;;;1999.90;999.90;;;;;;;1.46;100.00;98094.16;4965266;28;20027;-72
2023/01/13 06:37:46;;;;;;;1999.90;999.90;;;;;;;1.47;100.00;98103.88;4966083;28;20026;-76
2023/01/13 06:40:13;;;;;;;1999.90;999.90;;;;;;;1.47;100.00;98101.19;4964751;28;20115;-73
2023/01/13 06:45:25;;;;;;;1999.90;999.90;;;;;;;1.35;100.00;98108.41;4965118;28;20081;-73
2023/01/13 06:47:51;;;;;;;1999.90;999.90;;;;;;;1.41;100.00;98096.72;4963030;28;20051;-73
2023/01/13 06:50:17;;;;;;;1999.90;999.90;;;;;;;1.36;100.00;98096.59;4972002;28;20515;-73
2023/01/13 06:52:42;;;;;;;1999.90;999.90;;;;;;;1.34;100.00;98087.94;4962801;28;20042;-73
2023/01/13 06:55:08;;;;;;;1999.90;999.90;;;;;;;1.45;100.00;98089.81;4954804;28;20491;-74
2023/01/13 06:57:34;;;;;;;1999.90;999.90;;;;;;;1.47;100.00;98099.28;4972142;28;20085;-75
2023/01/13 06:59:59;;;;;;;1999.90;999.90;;;;;;;1.52;100.00;98098.59;4955243;28;20361;-74
2023/01/13 07:02:26;;;;;;;1999.90;999.90;;;;;;;1.57;100.00;98094.13;4964798;28;20033;-74
2023/01/13 07:04:51;;;;;;;1999.90;999.90;;;;;;;1.59;100.00;98102.81;4961511;28;20134;-74
2023/01/13 07:07:17;;;;;;;1999.90;999.90;;;;;;;1.66;100.00;98102.69;4965257;28;20114;-73
2023/01/13 07:09:42;;;;;;;1999.90;999.90;;;;;;;1.70;100.00;98098.47;4963553;28;20055;-74
2023/01/13 07:12:07;;;;;;;1999.90;999.90;;;;;;;1.71;100.00;98100.13;4947660;28;20429;-76
2023/01/13 07:17:23;;;;;;;1999.90;999.90;;;;;;;1.91;100.00;98111.34;4952623;28;20035;-74
2023/01/13 07:19:51;;;;;;;1999.90;999.90;;;;;;;1.99;100.00;98105.59;4962183;28;20023;-74
2023/01/13 07:22:17;;;;;;;1999.90;999.90;;;;;;;2.05;100.00;98101.13;4963607;28;20031;-74
2023/01/13 07:24:42;;;;;;;1999.90;999.90;;;;;;;2.04;100.00;98097.63;4964554;28;20030;-73
2023/01/13 07:27:08;;;;;;;1999.90;999.90;;;;;;;2.14;100.00;98110.50;4958511;28;20043;-73
2023/01/13 07:29:33;;;;;;;1999.90;999.90;;;;;;;2.34;100.00;98107.41;4956484;29;20031;-71
2023/01/13 07:31:58;;;;;;;1999.90;999.90;;;;;;;2.44;100.00;98105.75;4952812;28;20027;-73
2023/01/13 07:34:23;;;;;;;1999.90;999.90;;;;;;;2.68;100.00;98101.06;4952745;28;20023;-73
2023/01/13 07:36:49;;;;;;;1999.90;999.90;;;;;;;3.14;100.00;98102.69;4953219;28;20473;-73
2023/01/13 07:39:14;;;;;;;1999.90;999.90;;;;;;;3.85;100.00;98103.84;4952225;29;20034;-73
2023/01/13 07:44:23;;;;;;;1999.90;999.90;;;;;;;6.34;100.00;98113.09;4951863;28;20039;-74
2023/01/13 07:46:49;;;;;;;1999.90;999.90;;;;;;;6.86;100.00;98123.91;4953669;28;20039;-73
2023/01/13 07:49:14;;;;;;;1999.90;999.90;;;;;;;7.08;100.00;98122.88;4955464;28;20031;-73
2023/01/13 07:51:39;;;;;;;1999.90;999.90;;;;;;;8.05;100.00;98114.47;4954730;28;20134;-74
2023/01/13 07:54:05;;;;;;;1999.90;999.90;;;;;;;9.06;100.00;98135.94;4953286;28;20031;-74
2023/01/13 07:56:31;;;;;;;1999.90;999.90;;;;;;;10.29;95.45;98135.59;4954279;28;20090;-74
2023/01/13 07:58:58;;;;;;;1999.90;999.90;;;;;;;10.82;90.44;98127.31;4952926;28;20081;-74
2023/01/13 08:01:26;;;;;;;1999.90;999.90;;;;;;;10.41;89.93;98132.44;4953071;28;20042;-74
2023/01/13 08:03:51;;;;;;;1999.90;999.90;;;;;;;9.14;95.47;98132.66;4953278;28;20495;-74
2023/01/13 08:06:16;;;;;;;1999.90;999.90;;;;;;;8.11;100.00;98104.38;4953528;28;20027;-73
2023/01/13 08:08:42;;;;;;;1999.90;999.90;;;;;;;7.07;100.00;98113.09;4953909;28;20038;-75
2023/01/13 08:11:07;;;;;;;1999.90;999.90;;;;;;;6.92;100.00;98120.09;4953549;28;20031;-74
2023/01/13 08:13:33;;;;;;;1999.90;999.90;;;;;;;6.52;100.00;98106.38;4952918;28;20031;-76
2023/01/13 08:16:01;;;;;;;1999.90;999.90;;;;;;;5.67;100.00;98103.97;4952691;28;20027;-73
2023/01/13 08:18:27;;;;;;;1999.90;999.90;;;;;;;5.20;100.00;98099.22;4952790;28;20043;-74
2023/01/13 08:20:52;;;;;;;1999.90;999.90;;;;;;;5.02;100.00;98101.47;4952849;28;20030;-73
2023/01/13 08:23:19;;;;;;;1999.90;999.90;;;;;;;4.71;100.00;98105.75;4952752;28;20051;-73
2023/01/13 08:25:45;;;;;;;1999.90;999.90;;;;;;;4.56;100.00;98109.13;4952742;28;20093;-74
2023/01/13 08:28:11;;;;;;;1999.90;999.90;;;;;;;4.35;100.00;98101.00;4952842;28;20023;-73
2023/01/13 08:30:37;;;;;;;1999.90;999.90;;;;;;;4.28;100.00;98102.00;4952841;28;20031;-73
2023/01/13 08:33:06;;;;;;;1999.90;999.90;;;;;;;4.17;100.00;98104.81;4952824;28;20051;-73
2023/01/13 08:35:31;;;;;;;1999.90;999.90;;;;;;;4.04;100.00;98100.59;4952689;28;20121;-73
2023/01/13 08:37:56;;;;;;;1999.90;999.90;;;;;;;4.09;100.00;98095.25;4953050;28;20114;-73
2023/01/13 08:40:22;;;;;;;1999.90;999.90;;;;;;;4.01;100.00;98101.09;4952646;28;20366;-74
2023/01/13 08:42:47;;;;;;;1999.90;999.90;;;;;;;4.17;100.00;98105.66;4952478;28;20034;-74
2023/01/13 08:45:13;;;;;;;1999.90;999.90;;;;;;;4.27;100.00;98110.38;4952550;28;20027;-73
2023/01/13 08:47:39;;;;;;;1999.90;999.90;;;;;;;4.25;100.00;98113.34;4952590;28;20027;-74
2023/01/13 08:50:05;;;;;;;1999.90;999.90;;;;;;;4.31;100.00;98112.34;4952840;28;20023;-73
2023/01/13 08:52:30;;;;;;;1999.90;999.90;;;;;;;4.28;100.00;98118.25;4951941;28;20052;-73
2023/01/13 08:54:56;;;;;;;1999.90;999.90;;;;;;;4.41;100.00;98105.41;4951683;28;20765;-73
2023/01/13 08:57:21;;;;;;;1999.90;999.90;;;;;;;4.63;100.00;98115.19;4951688;28;20063;-73
2023/01/13 08:59:46;;;;;;;1999.90;999.90;;;;;;;4.59;100.00;98111.31;4951665;28;20428;-73
2023/01/13 09:02:14;;;;;;;1999.90;999.90;;;;;;;4.67;100.00;98113.56;4952171;28;20035;-74
2023/01/13 09:04:40;;;;;;;1999.90;999.90;;;;;;;4.80;100.00;98121.31;4951347;28;20035;-73
2023/01/13 09:07:05;;;;;;;1999.90;999.90;;;;;;;4.75;100.00;98125.88;4951658;28;20036;-73
2023/01/13 09:09:31;;;;;;;1999.90;999.90;;;;;;;4.71;100.00;98122.00;4951455;28;20458;-73
2023/01/13 09:14:40;;;;;;;1999.90;999.90;;;;;;;4.81;100.00;98124.84;4951788;28;20042;-74
2023/01/13 09:17:06;;;;;;;1999.90;999.90;;;;;;;4.88;100.00;98132.78;4952174;28;20023;-74
2023/01/13 09:19:32;;;;;;;1999.90;999.90;;;;;;;4.71;100.00;98109.28;4954379;28;20057;-75
2023/01/13 09:21:57;;;;;;;1999.90;999.90;;;;;;;4.85;100.00;98126.78;4958558;28;20033;-76
2023/01/13 09:24:23;;;;;;;1999.90;999.90;;;;;;;5.02;100.00;98128.59;4958306;28;20472;-75
2023/01/13 09:26:49;;;;;;;1999.90;999.90;;;;;;;4.86;100.00;98122.19;4957785;28;20031;-74
2023/01/13 09:29:14;;;;;;;1999.90;999.90;;;;;;;4.96;100.00;98129.59;4954929;28;20110;-74
2023/01/13 09:31:41;;;;;;;1999.90;999.90;;;;;;;4.88;100.00;98130.06;4954520;28;20055;-74
2023/01/13 09:36:58;;;;;;;1999.90;999.90;;;;;;;4.60;100.00;98109.44;4956433;28;20034;-74
2023/01/13 09:39:23;;;;;;;1999.90;999.90;;;;;;;4.53;100.00;98109.63;4960358;28;20042;-74
2023/01/13 09:44:57;;;;;;;1999.90;999.90;;;;;;;4.48;100.00;98101.44;4954693;28;20111;-73
2023/01/13 09:47:39;;;;;;;1999.90;999.90;;;;;;;4.48;100.00;98101.44;4954597;28;20027;-73
2023/01/13 09:50:23;;;;;;;1999.90;999.90;;;;;;;4.51;100.00;98094.72;4937572;28;20405;-74
2023/01/13 09:52:48;;;;;;;1999.90;999.90;;;;;;;4.51;100.00;98089.28;4916219;28;1138176;-73
2023/01/13 09:55:18;;;;;;;1999.90;999.90;;;;;;;4.53;100.00;98097.97;4957187;28;20397;-74
2023/01/13 09:57:43;;;;;;;1999.90;999.90;;;;;;;4.60;100.00;98095.91;4957145;28;20023;-73
2023/01/13 10:00:25;;;;;;;1999.90;999.90;;;;;;;4.67;100.00;98094.63;4955464;28;20381;-73
2023/01/13 10:03:00;;;;;;;1999.90;999.90;;;;;;;4.69;100.00;98083.53;4955112;28;20519;-73
2023/01/13 10:05:43;;;;;;;1999.90;999.90;;;;;;;4.78;100.00;98079.28;4955157;28;20469;-74
2023/01/13 10:08:23;;;;;;;1999.90;999.90;;;;;;;4.84;100.00;98075.56;4955349;28;20062;-73
2023/01/13 10:10:55;;;;;;;1999.90;999.90;;;;;;;4.93;100.00;98063.19;4955309;28;21658;-73
2023/01/13 10:13:25;;;;;;;1999.90;999.90;;;;;;;5.01;100.00;98065.41;4955014;28;20042;-73
2023/01/13 10:16:17;;;;;;;1999.90;999.90;;;;;;;5.19;100.00;98072.38;4955148;28;20027;-73
2023/01/13 10:18:48;;;;;;;1999.90;999.90;;;;;;;5.34;100.00;98061.66;4942922;28;20066;-73
2023/01/13 10:21:51;;;;;;;1999.90;999.90;;;;;;;5.51;100.00;98056.09;4955013;28;20564;-73
2023/01/13 10:24:51;;;;;;;1999.90;999.90;;;;;;;5.70;100.00;98055.41;4937655;28;20031;-73
2023/01/13 10:27:35;;;;;;;1999.90;999.90;;;;;;;5.95;100.00;98056.69;4954910;28;20548;-73
2023/01/13 10:30:38;;;;;;;1999.90;999.90;;;;;;;5.90;100.00;98052.03;4954652;28;20031;-73
2023/01/13 10:33:19;;;;;;;1999.90;999.90;;;;;;;6.08;100.00;98057.00;4932631;28;20035;-74
2023/01/13 10:35:59;;;;;;;1999.90;999.90;;;;;;;6.15;100.00;98057.59;4957064;28;20484;-83
2023/01/13 10:38:34;;;;;;;1999.90;999.90;;;;;;;6.29;100.00;98057.94;4954961;28;20118;-73
2023/01/13 10:41:02;;;;;;;1999.90;999.90;;;;;;;6.16;100.00;98058.41;4954769;28;20031;-73
2023/01/13 10:43:29;;;;;;;1999.90;999.90;;;;;;;6.27;100.00;98043.78;4954877;28;20063;-73
2023/01/13 10:45:57;;;;;;;1999.90;999.90;;;;;;;6.45;100.00;98049.56;4954691;28;20046;-74
2023/01/13 10:48:30;;;;;;;1999.90;999.90;;;;;;;6.63;100.00;98047.47;4954771;28;20035;-79
2023/01/13 10:50:55;;;;;;;1999.90;999.90;;;;;;;6.76;100.00;98041.53;4954706;28;20031;-73
2023/01/13 10:53:25;;;;;;;1999.90;999.90;;;;;;;6.80;100.00;98037.16;4954364;28;20051;-73
2023/01/13 10:56:01;;;;;;;1999.90;999.90;;;;;;;6.59;100.00;98038.19;4954486;28;20405;-73
2023/01/13 10:58:27;;;;;;;1999.90;999.90;;;;;;;6.87;100.00;98016.78;4937046;29;20392;-73
2023/01/13 11:01:02;;;;;;;1999.90;999.90;;;;;;;6.99;100.00;98024.69;4954806;28;20034;-80
2023/01/13 11:03:47;;;;;;;1999.90;999.90;;;;;;;6.95;100.00;98020.91;4954932;28;20054;-74
2023/01/13 11:06:29;;;;;;;1999.90;999.90;;;;;;;6.66;100.00;98009.69;4955309;28;20297;-73
2023/01/13 11:08:57;;;;;;;1999.90;999.90;;;;;;;6.95;100.00;98007.31;4956039;28;20118;-74
2023/01/13 11:11:41;;;;;;;1999.90;999.90;;;;;;;7.52;100.00;98002.38;4955334;28;20543;-73
2023/01/13 11:14:32;;;;;;;1999.90;999.90;;;;;;;7.55;100.00;98001.81;4955148;28;20027;-73
2023/01/13 11:17:08;;;;;;;1999.90;999.90;;;;;;;7.37;100.00;97988.78;4955679;28;20067;-73
2023/01/13 11:19:38;;;;;;;1999.90;999.90;;;;;;;7.16;100.00;97986.34;4954559;28;20127;-73
2023/01/13 11:22:14;;;;;;;1999.90;999.90;;;;;;;7.02;100.00;97988.78;4954291;28;20035;-74
2023/01/13 11:24:51;;;;;;;1999.90;999.90;;;;;;;6.98;100.00;97991.22;4936648;28;20035;-74
2023/01/13 11:27:43;;;;;;;1999.90;999.90;;;;;;;6.93;100.00;97993.13;4954032;28;20023;-73
2023/01/13 11:30:22;;;;;;;1999.90;999.90;;;;;;;6.76;100.00;97987.16;4953784;28;20392;-73
2023/01/13 11:33:01;;;;;;;1999.90;999.90;;;;;;;6.70;100.00;97986.34;4954156;28;20502;-78
2023/01/13 11:35:30;;;;;;;1999.90;999.90;;;;;;;6.70;100.00;97977.38;4954102;28;20042;-73
2023/01/13 11:38:33;;;;;;;1999.90;999.90;;;;;;;6.84;100.00;97967.59;4953710;28;20058;-73
2023/01/13 11:41:07;;;;;;;1999.90;999.90;;;;;;;6.82;100.00;97953.47;4953649;28;20496;-73
2023/01/13 11:44:11;;;;;;;1999.90;999.90;;;;;;;7.04;100.00;97967.59;4952955;28;20065;-73
2023/01/13 11:46:37;;;;;;;1999.90;999.90;;;;;;;7.03;100.00;97965.97;4952043;28;20110;-75
2023/01/13 11:49:03;;;;;;;1999.90;999.90;;;;;;;7.01;100.00;97951.84;4959183;28;20027;-78
2023/01/13 11:51:38;;;;;;;1999.90;999.90;;;;;;;6.92;100.00;97959.69;4955696;28;20058;-73